Time;durP1;ratioP1;P1;durP2;ratioP2;P2;SDS_P1;SDS_P2;PMS_P1;PMS_P2;Temp;Humidity;BMP_temperature;BMP_pressure;BME280_temperature;BME280_humidity;BME280_pressure;Samples;Min_cycle;Max_cycle;Signal;HPM_P1;HPM_P2
2022/03/30 00:01:24;;;;;;;11.27;7.03;;;;;7.50;95735.00;;;;5009972;28;20221;-69
2022/03/30 00:04:13;;;;;;;9.53;6.73;;;;;7.40;95732.00;;;;5010700;28;20729;-69
2022/03/30 00:07:04;;;;;;;13.27;7.83;;;;;7.30;95735.00;;;;5009977;28;20606;-68
2022/03/30 00:09:52;;;;;;;8.50;7.70;;;;;7.20;95734.00;;;;5010307;28;20202;-69
2022/03/30 00:12:42;;;;;;;9.17;7.07;;;;;7.30;95717.00;;;;5011232;28;20202;-68
2022/03/30 00:15:31;;;;;;;10.10;7.60;;;;;7.10;95722.00;;;;5010791;28;20620;-69
2022/03/30 00:18:20;;;;;;;10.43;7.30;;;;;6.40;95719.00;;;;5008965;28;20226;-69
2022/03/30 00:21:09;;;;;;;9.67;7.30;;;;;6.20;95710.00;;;;5006504;28;20255;-68
2022/03/30 00:23:59;;;;;;;11.10;7.17;;;;;6.30;95707.00;;;;5010352;28;20238;-69
2022/03/30 00:26:48;;;;;;;8.30;7.17;;;;;6.40;95717.00;;;;5010003;28;20442;-69
2022/03/30 00:29:37;;;;;;;10.50;8.17;;;;;6.60;95700.00;;;;5008790;28;20804;-68
2022/03/30 00:32:26;;;;;;;10.37;8.33;;;;;6.80;95699.00;;;;5010181;28;20698;-69
2022/03/30 00:35:16;;;;;;;9.70;6.93;;;;;7.00;95705.00;;;;5009662;28;20246;-69
2022/03/30 00:38:05;;;;;;;11.20;8.40;;;;;6.80;95694.00;;;;5009522;28;20205;-69
2022/03/30 00:40:55;;;;;;;11.13;7.70;;;;;6.60;95695.00;;;;5009690;28;20209;-68
2022/03/30 00:43:44;;;;;;;12.10;8.17;;;;;6.40;95681.00;;;;5009880;28;20229;-68
2022/03/30 00:46:34;;;;;;;13.97;6.60;;;;;6.60;95679.00;;;;5010520;28;20442;-69
2022/03/30 00:49:23;;;;;;;8.87;6.80;;;;;6.90;95686.00;;;;5010581;28;20201;-68
2022/03/30 00:52:13;;;;;;;9.00;6.47;;;;;7.10;95684.00;;;;5010167;28;20432;-69
2022/03/30 00:55:03;;;;;;;10.20;8.20;;;;;6.30;95676.00;;;;4998874;28;20226;-68
2022/03/30 00:57:55;;;;;;;9.63;7.53;;;;;5.90;95670.00;;;;5008927;28;20221;-68
2022/03/30 01:00:44;;;;;;;10.20;7.57;;;;;5.80;95668.00;;;;5009544;28;20205;-68
2022/03/30 01:03:35;;;;;;;10.00;7.67;;;;;5.70;95672.00;;;;5009871;28;20221;-69
2022/03/30 01:06:25;;;;;;;14.20;8.23;;;;;5.90;95665.00;;;;5009109;28;20425;-69
2022/03/30 01:09:14;;;;;;;9.27;7.30;;;;;5.80;95670.00;;;;5009449;28;20432;-68
2022/03/30 01:12:03;;;;;;;13.03;7.93;;;;;5.80;95670.00;;;;5009906;28;20433;-68
2022/03/30 01:14:54;;;;;;;12.90;8.03;;;;;5.60;95675.00;;;;5009278;28;20452;-68
2022/03/30 01:17:43;;;;;;;13.07;8.07;;;;;5.70;95676.00;;;;5009155;28;20444;-68
2022/03/30 01:20:32;;;;;;;11.20;7.80;;;;;5.90;95672.00;;;;4998309;28;20992;-68
2022/03/30 01:23:23;;;;;;;16.37;7.93;;;;;6.00;95673.00;;;;5008255;28;20473;-68
2022/03/30 01:26:12;;;;;;;9.43;7.33;;;;;5.90;95677.00;;;;5010365;28;20989;-68
2022/03/30 01:29:01;;;;;;;10.37;7.73;;;;;5.50;95667.00;;;;5010368;28;20520;-69
2022/03/30 01:34:58;;;;;;;10.07;7.60;;;;;5.60;95659.00;;;;5008252;28;20464;-68
2022/03/30 01:37:47;;;;;;;8.17;7.23;;;;;5.40;95654.00;;;;5009068;28;20828;-68
2022/03/30 01:40:38;;;;;;;8.97;7.00;;;;;4.90;95657.00;;;;5009072;28;20477;-68
2022/03/30 01:43:28;;;;;;;7.50;6.63;;;;;4.80;95655.00;;;;5009241;28;20445;-69
2022/03/30 01:46:17;;;;;;;12.40;7.90;;;;;5.10;95650.00;;;;5009377;28;20433;-68
2022/03/30 01:49:06;;;;;;;13.13;7.63;;;;;5.60;95655.00;;;;5010055;28;20425;-68
2022/03/30 01:51:56;;;;;;;9.10;7.33;;;;;5.30;95643.00;;;;5010001;28;20429;-68
2022/03/30 01:54:46;;;;;;;7.83;7.03;;;;;5.20;95642.00;;;;5009198;28;20473;-68
2022/03/30 01:57:36;;;;;;;8.57;7.03;;;;;5.30;95643.00;;;;5008935;28;20941;-68
2022/03/30 02:00:26;;;;;;;9.50;7.83;;;;;4.70;95636.00;;;;5009242;28;20473;-68
2022/03/30 02:03:15;;;;;;;11.73;7.27;;;;;5.40;95634.00;;;;5004939;28;20821;-68
2022/03/30 02:06:05;;;;;;;9.47;7.20;;;;;4.80;95630.00;;;;5009959;28;20425;-69
2022/03/30 02:08:54;;;;;;;10.43;7.20;;;;;5.00;95624.00;;;;5008811;28;20869;-68
2022/03/30 02:11:43;;;;;;;11.67;7.80;;;;;5.10;95622.00;;;;5008768;28;20432;-68
2022/03/30 02:14:34;;;;;;;9.67;7.60;;;;;4.70;95630.00;;;;5009778;28;20448;-68
2022/03/30 02:17:24;;;;;;;9.07;6.83;;;;;4.50;95609.00;;;;5008018;28;20429;-68
2022/03/30 02:20:12;;;;;;;7.17;6.03;;;;;4.10;95604.00;;;;5008739;28;20472;-68
2022/03/30 02:23:01;;;;;;;11.10;6.97;;;;;4.50;95601.00;;;;5011313;28;20440;-68
2022/03/30 02:25:50;;;;;;;10.97;6.93;;;;;4.70;95612.00;;;;5012809;28;20421;-69
2022/03/30 02:28:40;;;;;;;12.43;7.33;;;;;4.80;95606.00;;;;5012384;28;20447;-68
2022/03/30 02:31:31;;;;;;;12.67;7.37;;;;;4.60;95606.00;;;;5012654;28;20954;-68
2022/03/30 02:34:20;;;;;;;10.07;7.13;;;;;4.40;95613.00;;;;5012707;28;20472;-68
2022/03/30 02:37:09;;;;;;;16.47;8.57;;;;;4.40;95602.00;;;;5012091;28;20426;-68
2022/03/30 02:39:58;;;;;;;9.50;7.33;;;;;4.40;95605.00;;;;5012755;28;20472;-68
2022/03/30 02:42:47;;;;;;;10.47;7.47;;;;;4.30;95594.00;;;;5012601;28;20433;-68
2022/03/30 02:45:36;;;;;;;11.00;8.30;;;;;4.70;95601.00;;;;5012922;28;20509;-68
2022/03/30 02:48:29;;;;;;;8.97;7.83;;;;;4.70;95596.00;;;;5012469;28;20433;-68
2022/03/30 02:51:18;;;;;;;10.40;7.00;;;;;4.70;95595.00;;;;5011994;28;20430;-68
2022/03/30 02:54:07;;;;;;;10.50;8.27;;;;;4.50;95595.00;;;;5006386;28;20457;-68
2022/03/30 02:56:56;;;;;;;12.10;7.83;;;;;4.70;95586.00;;;;5011288;28;20441;-68
2022/03/30 02:59:45;;;;;;;13.43;8.93;;;;;4.60;95585.00;;;;5011472;28;20477;-68
2022/03/30 03:02:35;;;;;;;9.57;8.03;;;;;4.60;95588.00;;;;5012237;28;20433;-68
2022/03/30 03:05:27;;;;;;;11.13;8.03;;;;;4.80;95583.00;;;;5011326;28;20456;-68
2022/03/30 03:08:16;;;;;;;12.40;8.03;;;;;4.80;95583.00;;;;5011210;28;20425;-68
2022/03/30 03:11:05;;;;;;;14.33;8.40;;;;;4.70;95591.00;;;;5010629;28;20425;-68
2022/03/30 03:13:54;;;;;;;10.20;7.63;;;;;3.90;95590.00;;;;5011666;28;20492;-69
2022/03/30 03:16:43;;;;;;;4.63;4.17;;;;;3.80;95589.00;;;;5010717;28;20425;-69
2022/03/30 03:19:32;;;;;;;7.43;6.20;;;;;3.60;95599.00;;;;5011261;28;20434;-68
2022/03/30 03:22:23;;;;;;;10.97;8.43;;;;;3.80;95598.00;;;;5008772;28;20957;-68
2022/03/30 03:25:12;;;;;;;12.13;8.53;;;;;4.00;95597.00;;;;5012120;28;20468;-69
2022/03/30 03:28:02;;;;;;;15.23;8.77;;;;;3.70;95583.00;;;;5011343;28;20437;-68
2022/03/30 03:30:51;;;;;;;10.20;8.20;;;;;3.40;95569.00;;;;5011095;28;20429;-68
2022/03/30 03:33:40;;;;;;;10.57;8.10;;;;;3.90;95586.00;;;;5010927;28;20467;-68
2022/03/30 03:36:29;;;;;;;9.80;8.37;;;;;4.10;95591.00;;;;5010967;28;20429;-68
2022/03/30 03:39:20;;;;;;;12.47;9.07;;;;;4.20;95604.00;;;;5011387;28;20436;-68
2022/03/30 03:42:09;;;;;;;12.27;8.07;;;;;3.60;95591.00;;;;5011356;28;20421;-68
2022/03/30 03:44:58;;;;;;;13.17;8.43;;;;;3.80;95594.00;;;;5011784;28;20464;-68
2022/03/30 03:47:49;;;;;;;11.10;7.70;;;;;3.80;95582.00;;;;5010621;28;20964;-68
2022/03/30 03:50:38;;;;;;;17.03;8.73;;;;;4.10;95592.00;;;;5010908;28;20440;-68
2022/03/30 03:53:27;;;;;;;11.87;7.97;;;;;4.20;95594.00;;;;5011326;28;20988;-68
2022/03/30 03:56:17;;;;;;;10.17;7.83;;;;;3.60;95580.00;;;;5023139;28;20815;-68
2022/03/30 03:59:06;;;;;;;23.37;9.50;;;;;3.50;95585.00;;;;5011351;28;20444;-68
2022/03/30 04:01:55;;;;;;;10.63;8.43;;;;;3.40;95567.00;;;;5010616;28;20472;-68
2022/03/30 04:04:45;;;;;;;11.30;7.33;;;;;3.00;95560.00;;;;5010463;28;20442;-68
2022/03/30 04:07:34;;;;;;;18.90;9.20;;;;;3.20;95564.00;;;;5006002;28;20425;-69
2022/03/30 04:10:23;;;;;;;9.00;7.63;;;;;3.10;95569.00;;;;5007520;28;20428;-68
2022/03/30 04:13:13;;;;;;;11.17;8.97;;;;;3.00;95568.00;;;;5009627;28;20444;-68
2022/03/30 04:16:02;;;;;;;13.53;8.37;;;;;3.50;95568.00;;;;5005382;28;20440;-68
2022/03/30 04:18:51;;;;;;;15.00;10.33;;;;;3.60;95570.00;;;;5005788;28;20445;-68
2022/03/30 04:21:41;;;;;;;13.57;8.77;;;;;3.90;95570.00;;;;5009706;28;20461;-68
2022/03/30 04:24:30;;;;;;;12.67;9.00;;;;;3.80;95568.00;;;;5009460;28;20452;-68
2022/03/30 04:27:19;;;;;;;9.63;8.63;;;;;3.00;95561.00;;;;5009185;28;20432;-68
2022/03/30 04:30:11;;;;;;;16.30;10.17;;;;;2.90;95577.00;;;;5009638;28;20433;-69
2022/03/30 04:33:00;;;;;;;11.80;9.20;;;;;3.20;95575.00;;;;5010668;28;20428;-68
2022/03/30 04:35:49;;;;;;;12.57;8.97;;;;;3.50;95586.00;;;;5002399;28;20436;-68
2022/03/30 04:38:39;;;;;;;18.30;9.40;;;;;3.40;95594.00;;;;5009370;28;20425;-68
2022/03/30 04:41:28;;;;;;;15.13;10.37;;;;;3.50;95586.00;;;;4999644;28;20468;-68
2022/03/30 04:44:21;;;;;;;16.73;9.17;;;;;3.60;95582.00;;;;5013938;28;20966;-67
2022/03/30 04:47:11;;;;;;;13.73;8.47;;;;;3.40;95600.00;;;;5006201;28;20449;-67
2022/03/30 04:50:00;;;;;;;12.73;8.57;;;;;2.90;95596.00;;;;5003692;28;20425;-68
2022/03/30 04:52:51;;;;;;;14.57;10.30;;;;;2.90;95588.00;;;;5005489;28;20433;-67
2022/03/30 04:55:40;;;;;;;14.27;9.63;;;;;3.30;95603.00;;;;5008534;28;20441;-68
2022/03/30 04:58:29;;;;;;;13.17;9.60;;;;;3.60;95611.00;;;;5008598;28;20425;-68
2022/03/30 05:01:18;;;;;;;12.80;8.90;;;;;3.60;95604.00;;;;5008250;28;20488;-67
2022/03/30 05:04:09;;;;;;;15.53;9.90;;;;;3.70;95604.00;;;;4993638;28;20512;-67
2022/03/30 05:06:58;;;;;;;15.83;10.47;;;;;3.40;95597.00;;;;5002267;28;20444;-67
2022/03/30 05:09:47;;;;;;;14.30;9.57;;;;;3.30;95592.00;;;;5007726;28;20981;-67
2022/03/30 05:12:36;;;;;;;18.83;11.40;;;;;3.70;95608.00;;;;5009682;28;20417;-67
2022/03/30 05:15:28;;;;;;;17.90;11.23;;;;;2.90;95588.00;;;;5009027;28;20456;-67
2022/03/30 05:18:17;;;;;;;24.23;11.87;;;;;2.70;95597.00;;;;5006372;28;20436;-67
2022/03/30 05:21:07;;;;;;;11.67;9.67;;;;;3.10;95599.00;;;;5004159;28;20465;-67
2022/03/30 05:23:56;;;;;;;15.03;10.43;;;;;3.10;95593.00;;;;5009765;28;20961;-68
2022/03/30 05:26:45;;;;;;;13.83;9.67;;;;;3.70;95585.00;;;;5008938;28;20425;-67
2022/03/30 05:29:34;;;;;;;13.33;10.37;;;;;4.10;95576.00;;;;5008933;28;20946;-67
2022/03/30 05:32:23;;;;;;;17.73;10.73;;;;;3.90;95573.00;;;;5008625;28;20429;-67
2022/03/30 05:35:13;;;;;;;17.00;11.17;;;;;3.60;95562.00;;;;5017132;23;20501;-82
2022/03/30 05:38:03;;;;;;;15.00;11.30;;;;;3.60;95567.00;;;;5008666;28;20812;-82
2022/03/30 05:40:53;;;;;;;12.30;10.37;;;;;3.40;95554.00;;;;4981829;28;20891;-83
2022/03/30 05:43:42;;;;;;;18.40;11.90;;;;;3.30;95543.00;;;;4991488;28;20421;-83
2022/03/30 05:46:31;;;;;;;21.00;11.30;;;;;3.60;95550.00;;;;4988142;28;20431;-82
2022/03/30 05:49:20;;;;;;;14.47;10.63;;;;;3.60;95553.00;;;;4983356;28;20685;-82
2022/03/30 05:52:10;;;;;;;14.00;11.00;;;;;3.80;95563.00;;;;4989308;28;20438;-82
2022/03/30 05:55:03;;;;;;;15.40;10.90;;;;;4.40;95569.00;;;;4989789;28;20446;-83
2022/03/30 05:57:52;;;;;;;17.23;10.67;;;;;4.10;95570.00;;;;4983906;28;20956;-83
2022/03/30 06:00:41;;;;;;;19.80;11.60;;;;;3.50;95584.00;;;;4988358;28;20443;-84
2022/03/30 06:03:30;;;;;;;16.77;10.43;;;;;4.30;95578.00;;;;4995739;28;20438;-84
2022/03/30 06:06:19;;;;;;;14.53;11.27;;;;;4.30;95585.00;;;;4997808;28;20449;-84
2022/03/30 06:09:08;;;;;;;17.83;10.60;;;;;4.70;95574.00;;;;4991199;28;20469;-84
2022/03/30 06:11:59;;;;;;;20.03;12.50;;;;;4.90;95582.00;;;;4995198;28;20430;-83
2022/03/30 06:14:48;;;;;;;17.80;11.20;;;;;4.90;95587.00;;;;4999083;28;20936;-83
2022/03/30 06:17:37;;;;;;;15.17;10.37;;;;;4.80;95584.00;;;;4993074;28;20430;-84
2022/03/30 06:20:27;;;;;;;11.93;9.07;;;;;4.70;95591.00;;;;5002638;28;20461;-85
2022/03/30 06:23:16;;;;;;;11.50;9.57;;;;;4.40;95594.00;;;;4991671;28;20481;-85
2022/03/30 06:26:05;;;;;;;14.90;9.67;;;;;4.70;95604.00;;;;4995305;28;20448;-85
2022/03/30 06:28:56;;;;;;;17.80;10.43;;;;;5.10;95609.00;;;;4997650;28;20449;-85
2022/03/30 06:31:45;;;;;;;16.97;11.43;;;;;5.20;95605.00;;;;4997112;28;20434;-85
2022/03/30 06:34:35;;;;;;;13.73;10.83;;;;;5.20;95597.00;;;;4985486;28;20452;-85
2022/03/30 06:37:24;;;;;;;13.00;9.37;;;;;5.70;95607.00;;;;4997749;28;20441;-86
2022/03/30 06:40:15;;;;;;;16.30;12.43;;;;;5.80;95602.00;;;;4999183;28;20578;-85
2022/03/30 06:43:04;;;;;;;25.47;14.53;;;;;5.80;95603.00;;;;4996568;28;20472;-85
2022/03/30 06:45:55;;;;;;;29.13;15.97;;;;;5.60;95592.00;;;;4990958;28;21105;-85
2022/03/30 06:48:45;;;;;;;16.93;13.03;;;;;5.70;95598.00;;;;4996171;28;20446;-85
2022/03/30 06:51:34;;;;;;;17.97;12.70;;;;;5.90;95603.00;;;;4990124;28;20992;-85
2022/03/30 06:54:23;;;;;;;18.10;11.83;;;;;6.00;95604.00;;;;4997005;28;20446;-85
2022/03/30 06:57:12;;;;;;;15.63;11.63;;;;;6.40;95616.00;;;;4987151;28;20218;-84
2022/03/30 07:00:01;;;;;;;18.87;13.27;;;;;6.60;95618.00;;;;4993041;28;20477;-85
2022/03/30 07:02:52;;;;;;;18.30;12.20;;;;;6.60;95615.00;;;;4995734;28;20610;-85
2022/03/30 07:05:41;;;;;;;13.33;11.70;;;;;6.90;95608.00;;;;4984270;28;20202;-85
2022/03/30 07:11:37;;;;;;;15.77;12.00;;;;;7.40;95606.00;;;;4995287;28;20210;-85
2022/03/30 07:14:26;;;;;;;20.47;11.73;;;;;7.50;95601.00;;;;4982710;28;20195;-85
2022/03/30 07:17:15;;;;;;;18.47;11.67;;;;;8.00;95598.00;;;;4983161;28;20211;-85
2022/03/30 07:20:07;;;;;;;21.03;11.57;;;;;8.00;95593.00;;;;4990238;28;20603;-84
2022/03/30 07:22:57;;;;;;;16.30;10.87;;;;;8.10;95601.00;;;;4984654;28;20224;-85
2022/03/30 07:25:47;;;;;;;15.67;11.23;;;;;7.80;95599.00;;;;4986364;28;20679;-86
2022/03/30 07:28:37;;;;;;;15.10;11.50;;;;;8.20;95604.00;;;;4989738;28;20198;-85
2022/03/30 07:31:26;;;;;;;20.60;13.13;;;;;8.40;95613.00;;;;4992446;28;20203;-85
2022/03/30 07:34:17;;;;;;;16.00;11.97;;;;;8.60;95604.00;;;;4992702;28;20647;-85
2022/03/30 07:37:08;;;;;;;21.80;12.40;;;;;9.00;95612.00;;;;4990694;28;20199;-85
2022/03/30 07:39:57;;;;;;;14.70;12.37;;;;;9.30;95605.00;;;;4984984;28;20223;-85
2022/03/30 07:42:47;;;;;;;16.87;12.20;;;;;9.40;95610.00;;;;4986249;28;20673;-85
2022/03/30 07:45:36;;;;;;;16.73;11.77;;;;;9.30;95615.00;;;;4989529;28;20219;-86
2022/03/30 07:48:25;;;;;;;15.07;11.97;;;;;9.20;95610.00;;;;4991652;28;20214;-85
2022/03/30 07:51:14;;;;;;;15.57;11.27;;;;;9.70;95610.00;;;;4990762;28;20211;-86
2022/03/30 07:54:05;;;;;;;17.97;12.77;;;;;10.00;95608.00;;;;4985833;28;20211;-86
2022/03/30 07:56:54;;;;;;;23.23;13.93;;;;;10.50;95601.00;;;;4991127;28;20218;-85
2022/03/30 07:59:49;;;;;;;24.40;11.87;;;;;10.90;95596.00;;;;4979311;28;20287;-86
2022/03/30 08:02:39;;;;;;;18.83;11.97;;;;;11.00;95609.00;;;;4988274;28;20223;-86
2022/03/30 08:05:28;;;;;;;23.70;11.57;;;;;11.10;95605.00;;;;4980914;28;20211;-85
2022/03/30 08:08:17;;;;;;;22.30;13.47;;;;;11.20;95591.00;;;;4981022;28;20207;-86
2022/03/30 08:11:07;;;;;;;24.40;12.87;;;;;11.40;95595.00;;;;4988754;28;20202;-86
2022/03/30 08:13:57;;;;;;;17.33;11.83;;;;;11.40;95586.00;;;;4990719;28;20207;-86
2022/03/30 08:16:46;;;;;;;22.13;13.83;;;;;11.50;95588.00;;;;4974479;28;20210;-86
2022/03/30 08:19:36;;;;;;;20.03;13.00;;;;;11.80;95588.00;;;;4989885;28;20227;-86
2022/03/30 08:22:26;;;;;;;27.03;12.87;;;;;11.90;95593.00;;;;4990962;28;20226;-86
2022/03/30 08:25:15;;;;;;;18.23;13.17;;;;;12.00;95592.00;;;;4994808;28;20587;-85
2022/03/30 08:28:07;;;;;;;19.47;13.80;;;;;11.90;95597.00;;;;4992409;28;20218;-86
2022/03/30 08:30:56;;;;;;;23.53;14.53;;;;;12.20;95595.00;;;;4993845;28;20207;-85
2022/03/30 08:33:45;;;;;;;21.63;13.50;;;;;12.20;95591.00;;;;4992170;28;20213;-85
2022/03/30 08:36:34;;;;;;;15.73;11.93;;;;;12.40;95589.00;;;;4997897;28;20225;-85
2022/03/30 08:39:23;;;;;;;16.07;13.30;;;;;12.20;95589.00;;;;4989193;28;20227;-84
2022/03/30 08:42:14;;;;;;;24.83;17.30;;;;;11.80;95598.00;;;;4993033;28;20207;-85
2022/03/30 08:45:06;;;;;;;25.40;12.50;;;;;11.80;95590.00;;;;4987591;28;20199;-86
2022/03/30 08:47:55;;;;;;;24.10;13.30;;;;;11.80;95580.00;;;;4988812;28;20217;-85
2022/03/30 08:50:45;;;;;;;18.53;13.50;;;;;12.00;95582.00;;;;4993059;28;20229;-86
2022/03/30 08:53:35;;;;;;;17.63;12.87;;;;;12.20;95591.00;;;;4987536;28;20588;-85
2022/03/30 08:56:25;;;;;;;21.20;13.80;;;;;12.50;95588.00;;;;4989239;28;20226;-86
2022/03/30 08:59:18;;;;;;;24.03;12.97;;;;;12.20;95593.00;;;;4991597;28;20235;-84
2022/03/30 09:02:10;;;;;;;14.80;11.70;;;;;12.60;95591.00;;;;4991835;28;20206;-85
2022/03/30 09:05:14;;;;;;;22.13;12.90;;;;;12.30;95592.00;;;;4987356;28;20203;-85
2022/03/30 09:08:11;;;;;;;22.77;13.77;;;;;12.50;95591.00;;;;4986891;28;20221;-85
2022/03/30 09:11:00;;;;;;;18.73;14.13;;;;;12.70;95582.00;;;;4982934;28;20211;-85
2022/03/30 09:14:02;;;;;;;23.57;13.50;;;;;13.00;95593.00;;;;4988990;28;20229;-85
2022/03/30 09:16:52;;;;;;;22.13;15.47;;;;;12.80;95586.00;;;;4991717;28;20205;-85
2022/03/30 09:19:43;;;;;;;17.60;12.53;;;;;13.30;95589.00;;;;4993336;28;20957;-85
2022/03/30 09:22:34;;;;;;;19.63;13.10;;;;;13.20;95583.00;;;;4992534;28;20217;-84
2022/03/30 09:25:24;;;;;;;23.20;14.37;;;;;13.40;95583.00;;;;4988791;28;20215;-85
2022/03/30 09:28:15;;;;;;;25.50;13.90;;;;;13.70;95581.00;;;;4990235;28;20206;-86
2022/03/30 09:31:04;;;;;;;32.90;13.93;;;;;13.90;95576.00;;;;4998124;28;20221;-84
2022/03/30 09:33:54;;;;;;;25.80;17.63;;;;;14.20;95579.00;;;;4995506;28;20248;-85
2022/03/30 09:36:45;;;;;;;25.73;17.83;;;;;14.20;95572.00;;;;4971004;28;20217;-85
2022/03/30 09:39:36;;;;;;;24.73;17.60;;;;;14.40;95567.00;;;;4991597;28;20226;-86
2022/03/30 09:42:29;;;;;;;22.63;14.23;;;;;14.60;95575.00;;;;4994985;28;20210;-85
2022/03/30 09:45:29;;;;;;;18.73;13.73;;;;;14.70;95561.00;;;;4993642;28;20210;-85
2022/03/30 09:48:22;;;;;;;23.87;15.07;;;;;14.70;95560.00;;;;4996571;28;20204;-85
2022/03/30 09:51:12;;;;;;;18.03;12.97;;;;;14.90;95556.00;;;;4985265;28;20203;-84
2022/03/30 09:54:03;;;;;;;16.90;12.97;;;;;14.90;95556.00;;;;4990522;28;20214;-86
2022/03/30 09:56:52;;;;;;;17.50;13.27;;;;;14.90;95547.00;;;;4993103;28;20203;-86
2022/03/30 10:00:02;;;;;;;18.83;14.20;;;;;15.00;95546.00;;;;4981438;28;20298;-85
2022/03/30 10:02:52;;;;;;;19.53;13.07;;;;;15.00;95540.00;;;;4985963;28;20584;-84
2022/03/30 10:05:41;;;;;;;20.00;12.80;;;;;15.20;95539.00;;;;4983084;28;20236;-85
2022/03/30 10:08:31;;;;;;;18.77;14.47;;;;;15.20;95531.00;;;;4988583;28;20214;-85
2022/03/30 10:11:22;;;;;;;23.43;13.27;;;;;15.10;95519.00;;;;4985362;28;20589;-84
2022/03/30 10:14:12;;;;;;;25.40;15.50;;;;;15.10;95517.00;;;;4988941;28;20195;-85
2022/03/30 10:17:02;;;;;;;26.70;13.93;;;;;15.20;95513.00;;;;4985945;28;20207;-85
2022/03/30 10:19:52;;;;;;;20.60;12.97;;;;;15.20;95509.00;;;;4993395;28;20603;-85
2022/03/30 10:23:26;;;;;;;18.33;13.67;;;;;15.20;95500.00;;;;4985197;28;20208;-85
2022/03/30 10:26:19;;;;;;;21.30;14.40;;;;;15.30;95504.00;;;;4962352;28;20203;-85
2022/03/30 10:29:15;;;;;;;19.03;13.30;;;;;15.20;95492.00;;;;4995465;28;20237;-85
2022/03/30 10:32:15;;;;;;;23.67;16.17;;;;;15.10;95494.00;;;;4997446;28;20669;-85
2022/03/30 10:35:10;;;;;;;21.67;13.63;;;;;15.20;95487.00;;;;4989371;28;20681;-85
2022/03/30 10:38:00;;;;;;;21.60;15.00;;;;;15.40;95487.00;;;;4985154;28;20214;-85
2022/03/30 10:40:50;;;;;;;21.37;15.13;;;;;15.30;95483.00;;;;4984596;28;20596;-85
2022/03/30 10:43:38;;;;;;;18.10;14.07;;;;;15.40;95478.00;;;;4988617;28;20226;-85
2022/03/30 10:46:38;;;;;;;23.67;15.03;;;;;15.50;95483.00;;;;5003926;28;20206;-85
2022/03/30 10:49:45;;;;;;;27.27;14.63;;;;;15.60;95474.00;;;;4990572;28;20229;-86
2022/03/30 10:52:39;;;;;;;17.47;13.07;;;;;15.40;95471.00;;;;4989279;28;20203;-85
2022/03/30 10:55:38;;;;;;;20.40;14.73;;;;;15.70;95463.00;;;;4991020;28;20199;-84
2022/03/30 10:58:27;;;;;;;27.77;15.10;;;;;15.70;95466.00;;;;4993021;28;20203;-85
2022/03/30 11:01:18;;;;;;;21.17;15.63;;;;;15.60;95459.00;;;;4987115;28;20208;-85
2022/03/30 11:04:25;;;;;;;25.23;15.63;;;;;15.80;95443.00;;;;4990343;28;20607;-85
2022/03/30 11:07:41;;;;;;;20.03;14.20;;;;;15.70;95445.00;;;;4993627;28;20305;-86
2022/03/30 11:10:31;;;;;;;21.23;14.77;;;;;15.80;95440.00;;;;4993417;28;20241;-84
2022/03/30 11:13:27;;;;;;;21.43;14.83;;;;;15.70;95433.00;;;;4989788;28;20211;-85
2022/03/30 11:16:17;;;;;;;20.17;15.37;;;;;15.90;95434.00;;;;4992125;28;20215;-86
2022/03/30 11:19:07;;;;;;;22.07;14.70;;;;;15.60;95433.00;;;;4989387;28;20219;-86
2022/03/30 11:22:11;;;;;;;20.13;15.67;;;;;15.50;95431.00;;;;4990694;28;20222;-85
2022/03/30 11:25:08;;;;;;;21.53;15.30;;;;;15.40;95421.00;;;;4984357;28;20224;-85
2022/03/30 11:28:14;;;;;;;21.97;15.47;;;;;15.50;95406.00;;;;4983231;28;20207;-86
2022/03/30 11:31:05;;;;;;;21.33;16.10;;;;;15.70;95404.00;;;;4986160;28;20206;-86
2022/03/30 11:34:21;;;;;;;20.10;13.53;;;;;15.80;95401.00;;;;4988517;28;20210;-86
2022/03/30 11:37:10;;;;;;;21.73;15.70;;;;;15.90;95398.00;;;;4978549;28;20213;-86
2022/03/30 11:40:02;;;;;;;23.00;14.43;;;;;16.00;95397.00;;;;4994690;28;20264;-86
2022/03/30 11:42:52;;;;;;;22.97;16.73;;;;;15.80;95389.00;;;;4997834;28;20206;-85
2022/03/30 11:45:44;;;;;;;20.57;13.73;;;;;16.20;95395.00;;;;4986408;28;20223;-85
2022/03/30 11:48:39;;;;;;;22.27;13.37;;;;;16.30;95386.00;;;;4993825;28;20210;-85
2022/03/30 11:51:34;;;;;;;17.80;13.17;;;15.10;73.00;16.50;95380.00;;;;4995620;28;20242;-86
2022/03/30 11:54:22;;;;;;;20.90;14.37;;;15.10;73.40;16.50;95376.00;;;;4996675;28;20222;-86
2022/03/30 11:57:11;;;;;;;20.73;14.10;;;15.20;73.10;16.50;95386.00;;;;4995115;28;20203;-86
2022/03/30 12:00:05;;;;;;;22.67;14.67;;;15.30;72.40;16.20;95368.00;;;;4995048;28;20227;-86
2022/03/30 12:02:57;;;;;;;22.30;14.33;;;15.30;71.60;15.80;95368.00;;;;4995727;28;20220;-86
2022/03/30 12:05:46;;;;;;;21.70;14.50;;;15.30;71.00;16.40;95366.00;;;;4995040;28;20226;-85
2022/03/30 12:08:43;;;;;;;20.40;13.67;;;15.20;70.90;16.40;95370.00;;;;4995976;28;20210;-85
2022/03/30 12:11:37;;;;;;;24.00;17.50;;;15.30;71.20;16.40;95369.00;;;;4991433;28;20219;-86
2022/03/30 12:14:27;;;;;;;23.17;14.77;;;15.30;71.50;15.80;95360.00;;;;4995976;28;20233;-85
2022/03/30 12:17:28;;;;;;;21.60;15.60;;;15.30;70.10;16.10;95351.00;;;;4998034;28;20227;-85
2022/03/30 12:20:30;;;;;;;21.97;16.40;;;15.30;69.60;16.20;95350.00;;;;4991599;28;20779;-86
2022/03/30 12:23:20;;;;;;;24.13;15.50;;;15.20;70.00;16.10;95344.00;;;;4982877;28;20231;-85
2022/03/30 12:26:17;;;;;;;24.07;15.67;;;15.20;69.90;16.20;95350.00;;;;4986430;28;20205;-85
2022/03/30 12:29:09;;;;;;;21.27;14.23;;;15.10;70.10;16.20;95338.00;;;;4986840;28;20226;-85
2022/03/30 12:31:59;;;;;;;20.33;13.73;;;15.20;70.40;16.20;95337.00;;;;4985426;28;20206;-86
2022/03/30 12:34:48;;;;;;;21.60;14.97;;;15.30;70.50;16.20;95339.00;;;;4990299;28;20228;-86
2022/03/30 12:37:38;;;;;;;21.53;13.60;;;15.30;69.80;16.30;95334.00;;;;4985566;28;20216;-85
2022/03/30 12:40:26;;;;;;;33.50;15.20;;;15.30;69.50;16.20;95326.00;;;;4988523;28;20229;-85
2022/03/30 12:43:23;;;;;;;20.43;14.60;;;15.40;69.20;16.10;95320.00;;;;4989863;28;20218;-85
2022/03/30 12:46:19;;;;;;;24.73;15.10;;;15.30;68.70;15.90;95316.00;;;;4990872;28;20712;-85
2022/03/30 12:49:10;;;;;;;24.63;15.37;;;15.30;68.50;16.00;95315.00;;;;4988466;28;20230;-85
2022/03/30 12:52:12;;;;;;;18.93;13.53;;;15.20;68.70;16.00;95313.00;;;;4986669;28;20292;-86
2022/03/30 12:55:16;;;;;;;25.83;14.27;;;15.20;69.10;15.70;95309.00;;;;4984042;28;20248;-85
2022/03/30 12:58:11;;;;;;;23.00;16.53;;;15.10;68.30;15.40;95313.00;;;;4993426;28;20225;-86
2022/03/30 13:01:02;;;;;;;22.57;13.60;;;15.10;68.40;15.00;95300.00;;;;4994543;28;20206;-87
2022/03/30 13:03:52;;;;;;;21.40;15.60;;;14.90;67.60;14.10;95291.00;;;;4994087;28;20882;-87
2022/03/30 13:06:41;;;;;;;25.43;14.43;;;14.60;67.20;14.30;95299.00;;;;4984709;28;20256;-85
2022/03/30 13:09:30;;;;;;;19.80;13.57;;;14.30;68.10;14.20;95305.00;;;;4990798;28;20595;-85
2022/03/30 13:12:19;;;;;;;20.53;12.90;;;14.20;68.70;14.10;95293.00;;;;4991814;28;20199;-85
2022/03/30 13:15:10;;;;;;;21.03;14.37;;;14.10;69.00;14.50;95286.00;;;;4985143;28;20230;-84
2022/03/30 13:18:04;;;;;;;22.27;13.67;;;14.00;69.10;14.40;95282.00;;;;4979261;28;20681;-86
2022/03/30 13:20:59;;;;;;;19.23;14.10;;;14.00;69.30;14.30;95278.00;;;;4991296;28;20248;-84
2022/03/30 13:23:50;;;;;;;18.03;14.03;;;14.00;69.40;14.70;95280.00;;;;4992813;28;20206;-85
2022/03/30 13:26:43;;;;;;;22.70;13.90;;;14.00;69.40;14.80;95280.00;;;;4984998;28;20254;-85
2022/03/30 13:29:33;;;;;;;18.37;13.57;;;14.00;69.50;14.70;95281.00;;;;4982634;28;20217;-85
2022/03/30 13:32:22;;;;;;;13.90;12.30;;;14.10;69.30;14.90;95276.00;;;;4991943;28;20202;-85
2022/03/30 13:35:12;;;;;;;21.53;14.17;;;14.10;69.90;14.50;95274.00;;;;4988371;28;20230;-87
2022/03/30 13:38:01;;;;;;;18.60;12.87;;;14.10;69.00;14.00;95263.00;;;;4989707;28;20203;-85
2022/03/30 13:40:50;;;;;;;27.77;13.70;;;13.90;68.90;13.90;95247.00;;;;4986132;28;20202;-85
2022/03/30 13:43:39;;;;;;;20.43;14.40;;;13.80;69.20;14.20;95252.00;;;;4992920;28;20604;-85
2022/03/30 13:46:29;;;;;;;20.73;14.00;;;13.80;69.60;13.60;95251.00;;;;4991758;28;20214;-86
2022/03/30 13:49:40;;;;;;;17.93;12.13;;;13.70;69.00;13.50;95238.00;;;;4983902;28;20218;-86
2022/03/30 13:52:28;;;;;;;22.20;12.67;;;13.60;69.80;13.60;95236.00;;;;4987908;28;20725;-86
2022/03/30 13:55:17;;;;;;;16.53;12.97;;;13.50;69.40;13.60;95231.00;;;;4981093;28;20226;-86